Ana Sayfa
METAR-TAF:

METAR-TAF

Havaalanları :

Doylestown Airport

Doylestown, Pensilvanya, Amerika Birleşik Devletleri

Enlem: 40-19-48N, Boylam: 075-07-21W, yükseklik: 120 m

Güncel hava durumu gözlemi

Rapor saat 13:54 UTC de 1 saat ve 6 dakika önce yapıldı.
Rüzgar değişken yönden 4 kt
Sıcaklık -3°C
Nem 63%
Basınç 1011 hPa
Görüş mesafesi: 16.1 km
9000 ft yükseklikte çok bulutlu

METAR: KDYL 211354Z AUTO VRB04KT 10SM OVC090 M03/M09 A2984 RMK AO2 SLP113 T10281089

Saat: 10:00 (15:00 UTC)


TAF: eksik

4.000'den fazla havaalanı için hava durumu gözlemleri ve tahminleri (METAR ve TAF raporları).

Kullanılabilir istasyonlar harita üzerinde sarı ve kırmızı noktalarla gösterilir.

İstasyonun adını görmek için fareyi noktanın üzerinde gezdirin.

Sonrasında hava gözlem ve tahminlerini görmek için tıklayın.

Haritayı değiştirmek için: yaklaştırmak için siyah artı işaretli yeşil düğmeye ve uzaklaştırmak için de eksi işaretli düğmeye hızla tıklayın; bitişik haritalar için yeşil okları kullanın.


METAR-TAF: